Íslenskir flugvellir

Veldu flugvelli í þeirri röð sem þeir eiga að birtast og styddu á hnappinn

Uppfært síðast 21.06.2024 - kl. 03:55

SIGMET síðustu 6 klst.

Engin SIGMET skeyti bárust síðustu 6 klst.

Keflavík

METAR síðustu 3 klst

TímiSkeyti
2024-06-21 03.30METAR BIKF 210330Z 09008KT 9999 -DZRA FEW020 OVC046 09/07 Q0998
2024-06-21 03.00METAR BIKF 210300Z 09005KT 9999 -DZRA FEW020 BKN049 OVC072 09/07 Q0998
2024-06-21 02.30METAR BIKF 210230Z 09007KT 9999 -DZ FEW029 OVC069 09/07 Q0999
2024-06-21 02.00METAR BIKF 210200Z 09006KT 9999 -DZ FEW029 SCT049 OVC070 09/08 Q0999
2024-06-21 01.30METAR BIKF 210130Z 09005KT 9999 -RA FEW027 BKN048 OVC061 09/08 Q0999
2024-06-21 01.00METAR BIKF 210100Z 11006KT 070V140 9999 -RA FEW012 SCT024 OVC045 09/08 Q0999

TAF

TAFBIKF2024-06-21 01.03Z21030310008KT 9999 -RA BKN020 TX12/2117Z TN08/2106Z TEMPO 2103/2107 3000 DZ BR OVC005

Allur vindur er réttvísandi bæði í Metar og frá sjálfvirkum veðurstöðvum




Aðrir tengdir vefir



Þetta vefsvæði byggir á Eplica